Time;durP1;ratioP1;P1;durP2;ratioP2;P2;SDS_P1;SDS_P2;PMS_P1;PMS_P2;Temp;Humidity;BMP_temperature;BMP_pressure;BME280_temperature;BME280_humidity;BME280_pressure;Samples;Min_cycle;Max_cycle;Signal;HPM_P1;HPM_P2
2022/08/24 00:00:54;;;;;;;41.58;23.55;;;;;;;;;;5021403;28;20638;-79
2022/08/24 00:03:19;;;;;;;41.70;23.92;;;;;;;;;;5021794;28;20555;-86
2022/08/24 00:05:44;;;;;;;45.92;24.17;;;;;;;;;;5038742;28;20484;-85
2022/08/24 00:08:09;;;;;;;39.50;23.85;;;;;;;;;;5023300;28;20729;-84
2022/08/24 00:10:35;;;;;;;41.58;23.45;;;;;;;;;;5041786;28;20112;-79
2022/08/24 00:13:00;;;;;;;44.95;23.40;;;;;;;;;;5021933;28;20401;-78
2022/08/24 00:15:25;;;;;;;42.43;23.17;;;;;;;;;;5026871;28;20064;-78
2022/08/24 00:17:50;;;;;;;38.97;23.27;;;;;;;;;;5025611;28;20278;-85
2022/08/24 00:20:16;;;;;;;50.40;26.87;;;;;;;;;;5026796;28;20853;-83
2022/08/24 00:22:41;;;;;;;47.28;26.08;;;;;;;;;;5026371;28;20290;-78
2022/08/24 00:25:08;;;;;;;44.22;25.15;;;;;;;;;;5024085;28;20039;-79
2022/08/24 00:27:33;;;;;;;37.13;23.52;;;;;;;;;;5019610;28;20394;-78
2022/08/24 00:29:59;;;;;;;46.17;24.98;;;;;;;;;;5024736;28;20017;-86
2022/08/24 00:32:28;;;;;;;52.73;27.77;;;;;;;;;;5021275;28;20025;-86
2022/08/24 00:34:57;;;;;;;49.60;24.60;;;;;;;;;;5019703;28;20322;-78
2022/08/24 00:37:27;;;;;;;48.10;26.38;;;;;;;;;;5022505;28;20039;-78
2022/08/24 00:39:55;;;;;;;47.95;25.73;;;;;;;;;;5022324;28;20033;-83
2022/08/24 00:42:21;;;;;;;45.80;26.40;;;;;;;;;;5019764;28;20025;-85
2022/08/24 00:44:46;;;;;;;47.67;28.07;;;;;;;;;;5020745;28;20048;-78
2022/08/24 00:47:15;;;;;;;48.80;27.13;;;;;;;;;;5022452;28;20282;-85
2022/08/24 00:49:43;;;;;;;45.15;26.00;;;;;;;;;;5048359;28;20029;-83
2022/08/24 00:52:09;;;;;;;62.13;30.35;;;;;;;;;;5022053;28;20022;-85
2022/08/24 00:54:37;;;;;;;44.97;24.70;;;;;;;;;;5020600;28;20133;-85
2022/08/24 00:57:05;;;;;;;56.25;28.90;;;;;;;;;;5022012;28;20143;-81
2022/08/24 00:59:36;;;;;;;50.13;28.73;;;;;;;;;;5018741;28;20029;-78
2022/08/24 01:02:05;;;;;;;54.55;31.23;;;;;;;;;;5022509;28;20063;-84
2022/08/24 01:04:38;;;;;;;52.78;29.42;;;;;;;;;;5020753;28;20136;-78
2022/08/24 01:07:06;;;;;;;54.35;30.17;;;;;;;;;;5018638;28;20300;-78
2022/08/24 01:09:31;;;;;;;49.55;30.10;;;;;;;;;;5018286;28;20037;-82
2022/08/24 01:11:58;;;;;;;48.28;29.75;;;;;;;;;;5018660;28;20152;-79
2022/08/24 01:14:23;;;;;;;50.58;28.80;;;;;;;;;;5048698;28;20125;-77
2022/08/24 01:19:36;;;;;;;54.47;29.85;;;;;;;;;;5022609;28;20051;-78
2022/08/24 01:22:07;;;;;;;51.90;29.30;;;;;;;;;;5018975;28;20025;-77
2022/08/24 01:24:34;;;;;;;48.95;26.65;;;;;;;;;;5021159;28;20026;-85
2022/08/24 01:27:02;;;;;;;49.53;25.98;;;;;;;;;;5020672;28;20022;-77
2022/08/24 01:29:30;;;;;;;48.63;27.02;;;;;;;;;;5016749;28;20029;-81
2022/08/24 01:31:55;;;;;;;52.72;27.88;;;;;;;;;;5023493;28;20021;-78
2022/08/24 01:34:20;;;;;;;48.80;26.95;;;;;;;;;;5023792;28;20026;-85
2022/08/24 01:36:47;;;;;;;46.50;25.25;;;;;;;;;;5040678;28;20026;-78
2022/08/24 01:39:23;;;;;;;48.85;26.95;;;;;;;;;;5035616;28;20162;-85
2022/08/24 01:41:48;;;;;;;47.17;26.02;;;;;;;;;;5021262;28;20488;-85
2022/08/24 01:44:14;;;;;;;47.83;26.60;;;;;;;;;;5018236;28;20034;-79
2022/08/24 01:46:47;;;;;;;50.95;30.92;;;;;;;;;;5036195;28;20033;-83
2022/08/24 01:49:13;;;;;;;49.50;28.23;;;;;;;;;;5020786;28;20032;-79
2022/08/24 01:51:39;;;;;;;42.15;25.48;;;;;;;;;;5022159;28;20026;-78
2022/08/24 01:54:05;;;;;;;45.97;26.67;;;;;;;;;;5049350;28;20026;-79
2022/08/24 01:56:34;;;;;;;50.20;29.05;;;;;;;;;;5022168;28;20041;-78
2022/08/24 01:59:00;;;;;;;45.30;26.10;;;;;;;;;;5017820;28;20116;-83
2022/08/24 02:01:26;;;;;;;41.65;22.30;;;;;;;;;;5020045;28;20156;-77
2022/08/24 02:03:51;;;;;;;45.40;25.17;;;;;;;;;;5035260;28;20061;-83
2022/08/24 02:06:17;;;;;;;37.67;22.13;;;;;;;;;;5037322;28;20045;-83
2022/08/24 02:08:42;;;;;;;38.08;23.30;;;;;;;;;;5018102;28;20025;-85
2022/08/24 02:11:08;;;;;;;46.65;25.35;;;;;;;;;;5020413;28;20460;-77
2022/08/24 02:13:34;;;;;;;36.70;22.52;;;;;;;;;;5021533;28;20505;-77
2022/08/24 02:15:59;;;;;;;47.40;24.77;;;;;;;;;;5018204;28;20104;-83
2022/08/24 02:18:25;;;;;;;36.80;23.25;;;;;;;;;;5019988;28;20136;-84
2022/08/24 02:20:50;;;;;;;48.08;23.20;;;;;;;;;;5020973;28;20021;-76
2022/08/24 02:23:15;;;;;;;34.42;22.17;;;;;;;;;;5016232;28;20029;-77
2022/08/24 02:25:41;;;;;;;39.83;22.40;;;;;;;;;;5020894;28;20483;-82
2022/08/24 02:28:09;;;;;;;38.83;23.38;;;;;;;;;;5032882;28;20408;-77
2022/08/24 02:30:34;;;;;;;44.00;22.63;;;;;;;;;;5020829;28;20061;-78
2022/08/24 02:33:00;;;;;;;40.42;23.10;;;;;;;;;;5019881;28;20103;-77
2022/08/24 02:35:26;;;;;;;42.33;22.15;;;;;;;;;;5018455;28;20031;-84
2022/08/24 02:37:51;;;;;;;40.42;24.05;;;;;;;;;;5019535;28;20512;-76
2022/08/24 02:40:16;;;;;;;56.03;30.57;;;;;;;;;;5015787;28;20022;-76
2022/08/24 02:42:41;;;;;;;42.28;24.15;;;;;;;;;;5019752;28;20293;-76
2022/08/24 02:45:07;;;;;;;49.70;28.17;;;;;;;;;;5019910;28;20029;-77
2022/08/24 02:47:33;;;;;;;49.08;27.17;;;;;;;;;;5033189;28;20152;-77
2022/08/24 02:50:00;;;;;;;51.55;27.15;;;;;;;;;;5016535;28;20766;-76
2022/08/24 02:52:25;;;;;;;46.75;26.42;;;;;;;;;;5014904;28;20033;-83
2022/08/24 02:54:50;;;;;;;43.78;25.23;;;;;;;;;;5019206;28;20030;-77
2022/08/24 02:57:16;;;;;;;43.03;25.67;;;;;;;;;;5018227;28;20026;-77
2022/08/24 02:59:41;;;;;;;51.05;27.67;;;;;;;;;;5018458;28;20336;-76
2022/08/24 03:02:06;;;;;;;43.53;25.13;;;;;;;;;;5019471;28;20041;-77
2022/08/24 03:04:31;;;;;;;45.47;26.05;;;;;;;;;;5017233;28;20435;-80
2022/08/24 03:06:58;;;;;;;48.03;25.20;;;;;;;;;;5035064;28;20103;-83
2022/08/24 03:09:23;;;;;;;43.63;25.65;;;;;;;;;;5017287;28;20026;-84
2022/08/24 03:11:48;;;;;;;53.28;29.65;;;;;;;;;;5016760;28;20056;-83
2022/08/24 03:14:17;;;;;;;51.23;28.20;;;;;;;;;;5021435;28;20029;-76
2022/08/24 03:16:42;;;;;;;45.85;26.52;;;;;;;;;;5021115;28;20337;-83
2022/08/24 03:19:08;;;;;;;49.25;27.60;;;;;;;;;;5017624;28;20060;-84
2022/08/24 03:21:33;;;;;;;49.63;27.90;;;;;;;;;;5019953;28;20056;-84
2022/08/24 03:23:58;;;;;;;52.63;28.37;;;;;;;;;;5033992;28;20025;-84
2022/08/24 03:26:23;;;;;;;50.70;28.20;;;;;;;;;;5019962;28;20301;-77
2022/08/24 03:28:49;;;;;;;47.10;29.60;;;;;;;;;;5017494;28;20290;-83
2022/08/24 03:31:15;;;;;;;48.13;28.08;;;;;;;;;;5020334;28;20298;-84
2022/08/24 03:33:40;;;;;;;47.70;26.10;;;;;;;;;;5031540;28;20021;-83
2022/08/24 03:36:08;;;;;;;49.95;27.45;;;;;;;;;;5014348;28;20029;-77
2022/08/24 03:38:33;;;;;;;58.17;29.65;;;;;;;;;;5013901;28;20033;-78
2022/08/24 03:41:01;;;;;;;43.97;27.20;;;;;;;;;;5021788;28;20022;-83
2022/08/24 03:43:45;;;;;;;49.30;27.08;;;;;;;;;;5021502;28;20022;-77
2022/08/24 03:46:11;;;;;;;44.92;27.42;;;;;;;;;;5019344;28;20037;-78
2022/08/24 03:48:37;;;;;;;51.65;28.23;;;;;;;;;;5021424;28;20095;-77
2022/08/24 03:51:25;;;;;;;47.50;25.45;;;;;;;;;;5037435;28;20705;-78
2022/08/24 03:53:54;;;;;;;53.05;28.13;;;;;;;;;;5019391;28;20493;-78
2022/08/24 03:56:19;;;;;;;40.92;25.85;;;;;;;;;;5024622;28;20088;-76
2022/08/24 03:58:44;;;;;;;45.90;26.73;;;;;;;;;;5022845;28;20033;-83
2022/08/24 04:01:10;;;;;;;48.70;28.63;;;;;;;;;;5021946;28;20041;-78
2022/08/24 04:03:40;;;;;;;46.47;25.88;;;;;;;;;;5022314;28;20124;-84
2022/08/24 04:06:07;;;;;;;49.35;27.02;;;;;;;;;;5020884;28;20448;-78
2022/08/24 04:08:33;;;;;;;46.65;28.23;;;;;;;;;;5020201;28;20064;-84
2022/08/24 04:11:01;;;;;;;51.65;29.13;;;;;;;;;;5019956;28;20036;-77
2022/08/24 04:13:30;;;;;;;49.40;28.05;;;;;;;;;;5021124;28;20033;-77
2022/08/24 04:16:09;;;;;;;46.47;26.13;;;;;;;;;;5020059;28;20075;-84
2022/08/24 04:18:35;;;;;;;44.03;26.10;;;;;;;;;;5020927;28;20029;-78
2022/08/24 04:21:00;;;;;;;42.53;25.50;;;;;;;;;;5018728;28;20080;-78
2022/08/24 04:23:25;;;;;;;45.85;28.15;;;;;;;;;;5022485;28;20341;-78
2022/08/24 04:25:51;;;;;;;46.00;26.42;;;;;;;;;;5021199;28;20029;-81
2022/08/24 04:28:17;;;;;;;48.15;30.45;;;;;;;;;;5020745;28;20033;-84
2022/08/24 04:30:43;;;;;;;53.25;28.20;;;;;;;;;;5023438;28;20355;-84
2022/08/24 04:33:10;;;;;;;43.83;25.55;;;;;;;;;;5021488;28;21512;-81
2022/08/24 04:35:36;;;;;;;48.53;27.25;;;;;;;;;;5020313;28;20022;-84
2022/08/24 04:38:01;;;;;;;48.22;27.05;;;;;;;;;;5020301;28;20065;-78
2022/08/24 04:40:26;;;;;;;46.42;27.42;;;;;;;;;;5020216;28;20049;-84
2022/08/24 04:42:51;;;;;;;44.60;26.85;;;;;;;;;;5021604;28;20029;-76
2022/08/24 04:45:17;;;;;;;47.88;27.10;;;;;;;;;;5017691;28;20056;-81
2022/08/24 04:47:45;;;;;;;42.85;25.55;;;;;;;;;;5019118;28;20060;-77
2022/08/24 04:50:10;;;;;;;48.92;27.25;;;;;;;;;;5032508;28;20555;-77
2022/08/24 04:52:35;;;;;;;49.53;27.77;;;;;;;;;;5021330;28;20083;-77
2022/08/24 04:55:05;;;;;;;47.05;25.38;;;;;;;;;;5019786;28;20021;-77
2022/08/24 04:57:33;;;;;;;45.92;27.45;;;;;;;;;;5024171;28;20032;-84
2022/08/24 05:00:03;;;;;;;46.63;27.90;;;;;;;;;;5019855;28;20029;-83
2022/08/24 05:02:31;;;;;;;49.10;27.92;;;;;;;;;;5021165;28;20037;-78
2022/08/24 05:04:56;;;;;;;49.33;29.60;;;;;;;;;;5018523;28;20167;-78
2022/08/24 05:07:22;;;;;;;49.45;28.58;;;;;;;;;;5017595;28;20026;-77
2022/08/24 05:09:47;;;;;;;49.38;29.75;;;;;;;;;;5021403;28;20072;-84
2022/08/24 05:12:12;;;;;;;45.88;27.23;;;;;;;;;;5017210;28;20045;-83
2022/08/24 05:14:38;;;;;;;44.08;25.85;;;;;;;;;;5017378;28;20037;-77
2022/08/24 05:17:03;;;;;;;46.10;26.83;;;;;;;;;;5013689;28;20029;-81
2022/08/24 05:19:28;;;;;;;45.47;27.70;;;;;;;;;;5021019;28;20029;-83
2022/08/24 05:21:54;;;;;;;47.67;27.45;;;;;;;;;;5018438;28;20108;-83
2022/08/24 05:24:19;;;;;;;47.25;27.45;;;;;;;;;;5026929;28;20039;-77
2022/08/24 05:26:44;;;;;;;41.35;25.75;;;;;;;;;;5025861;28;20198;-81
2022/08/24 05:29:10;;;;;;;43.65;27.15;;;;;;;;;;5039933;28;20025;-83
2022/08/24 05:31:35;;;;;;;43.80;24.48;;;;;;;;;;5024789;28;20037;-83
2022/08/24 05:34:01;;;;;;;39.83;23.50;;;;;;;;;;5026322;28;20083;-79
2022/08/24 05:36:28;;;;;;;42.28;24.55;;;;;;;;;;5024352;28;20051;-83
2022/08/24 05:38:54;;;;;;;39.70;25.10;;;;;;;;;;5039626;28;20044;-81
2022/08/24 05:41:20;;;;;;;34.83;22.23;;;;;;;;;;5021030;28;20618;-76
2022/08/24 05:43:45;;;;;;;37.30;22.27;;;;;;;;;;5020070;28;20036;-84
2022/08/24 05:46:10;;;;;;;35.65;20.60;;;;;;;;;;5024051;28;20504;-76
2022/08/24 05:48:36;;;;;;;33.47;20.73;;;;;;;;;;5020029;28;20025;-79
2022/08/24 05:51:02;;;;;;;39.72;23.70;;;;;;;;;;5025212;28;20059;-83
2022/08/24 05:53:27;;;;;;;33.13;21.35;;;;;;;;;;5022636;28;20040;-82
2022/08/24 05:55:53;;;;;;;34.13;21.50;;;;;;;;;;5040753;28;20160;-78
2022/08/24 05:58:18;;;;;;;32.28;21.05;;;;;;;;;;5025119;28;20018;-78
2022/08/24 06:00:46;;;;;;;30.70;19.02;;;;;;;;;;5022333;28;20026;-85
2022/08/24 06:03:12;;;;;;;30.50;20.02;;;;;;;;;;5022352;28;20036;-85
2022/08/24 06:05:38;;;;;;;33.47;20.10;;;;;;;;;;5023740;28;20033;-83
2022/08/24 06:08:03;;;;;;;34.45;21.58;;;;;;;;;;5039659;28;20116;-83
2022/08/24 06:10:29;;;;;;;31.00;18.75;;;;;;;;;;5025067;28;20121;-76
2022/08/24 06:12:54;;;;;;;30.55;18.92;;;;;;;;;;5038331;28;20045;-77
2022/08/24 06:15:20;;;;;;;29.80;19.88;;;;;;;;;;5040119;28;20145;-82
2022/08/24 06:17:46;;;;;;;30.27;18.00;;;;;;;;;;5024265;28;20241;-84
2022/08/24 06:20:12;;;;;;;18.67;11.50;;;;;;;;;;5028113;28;20411;-80
2022/08/24 06:22:37;;;;;;;27.00;16.77;;;;;;;;;;5024215;28;20051;-75
2022/08/24 06:27:46;;;;;;;38.60;23.98;;;;;;;;;;5026072;28;20674;-80
2022/08/24 06:30:12;;;;;;;49.42;28.10;;;;;;;;;;5023442;28;20017;-81
2022/08/24 06:32:38;;;;;;;47.28;27.23;;;;;;;;;;5022541;28;20029;-75
2022/08/24 06:35:03;;;;;;;50.60;28.20;;;;;;;;;;5024789;28;20029;-80
2022/08/24 06:37:29;;;;;;;51.00;27.33;;;;;;;;;;5022886;28;20405;-81
2022/08/24 06:39:55;;;;;;;51.00;29.48;;;;;;;;;;5020981;28;20495;-80
2022/08/24 06:42:20;;;;;;;58.17;30.05;;;;;;;;;;5020030;28;20267;-80
2022/08/24 06:44:45;;;;;;;58.53;31.15;;;;;;;;;;5022688;28;20122;-76
2022/08/24 06:47:11;;;;;;;47.50;29.75;;;;;;;;;;5021066;28;20067;-76
2022/08/24 06:49:36;;;;;;;55.00;31.15;;;;;;;;;;5018078;28;20613;-81
2022/08/24 06:52:03;;;;;;;66.40;34.50;;;;;;;;;;5022030;28;20508;-80
2022/08/24 06:54:28;;;;;;;50.63;29.20;;;;;;;;;;5020586;28;20021;-80
2022/08/24 06:56:55;;;;;;;59.70;31.87;;;;;;;;;;5024663;28;20025;-76
2022/08/24 06:59:20;;;;;;;57.63;32.78;;;;;;;;;;5023384;28;20778;-76
2022/08/24 07:01:45;;;;;;;87.32;47.67;;;;;;;;;;5039385;28;20083;-76
2022/08/24 07:04:10;;;;;;;76.67;43.83;;;;;;;;;;5022379;28;20029;-81
2022/08/24 07:06:36;;;;;;;57.80;33.20;;;;;;;;;;5020819;28;20290;-76
2022/08/24 07:09:01;;;;;;;66.28;36.92;;;;;;;;;;5021366;28;20290;-77
2022/08/24 07:11:26;;;;;;;51.13;31.60;;;;;;;;;;5027902;28;20046;-77
2022/08/24 07:13:55;;;;;;;64.03;37.75;;;;;;;;;;5024485;28;20531;-76
2022/08/24 07:16:20;;;;;;;58.20;34.00;;;;;;;;;;5043972;28;20021;-82
2022/08/24 07:18:45;;;;;;;51.70;31.85;;;;;;;;;;5025380;28;20047;-76
2022/08/24 07:21:11;;;;;;;47.03;31.25;;;;;;;;;;5023547;28;20033;-78
2022/08/24 07:23:36;;;;;;;63.05;38.55;;;;;;;;;;5036098;28;20039;-78
2022/08/24 07:26:09;;;;;;;49.47;29.02;;;;;;;;;;5031374;28;20034;-80
2022/08/24 07:28:36;;;;;;;50.55;31.13;;;;;;;;;;5047746;28;20516;-80
2022/08/24 07:31:02;;;;;;;47.63;27.30;;;;;;;;;;5030161;28;20478;-81
2022/08/24 07:33:30;;;;;;;58.28;33.38;;;;;;;;;;5046884;28;20017;-80
2022/08/24 07:35:56;;;;;;;51.03;26.60;;;;;;;;;;5044464;28;20034;-78
2022/08/24 07:38:21;;;;;;;51.70;32.63;;;;;;;;;;5031623;28;20400;-81
2022/08/24 07:40:47;;;;;;;56.95;33.58;;;;;;;;;;5031389;28;20286;-78
2022/08/24 07:43:12;;;;;;;43.30;26.77;;;;;;;;;;5025875;28;20439;-78
2022/08/24 07:45:41;;;;;;;42.35;25.48;;;;;;;;;;5047501;28;20030;-79
2022/08/24 07:48:06;;;;;;;46.17;27.95;;;;;;;;;;5022995;28;20037;-78
2022/08/24 07:50:36;;;;;;;52.42;30.40;;;;;;;;;;5032403;28;20492;-81
2022/08/24 07:53:01;;;;;;;50.53;31.58;;;;;;;;;;5030440;28;20032;-81
2022/08/24 07:55:26;;;;;;;42.40;26.20;;;;;;;;;;5031903;28;20041;-83
2022/08/24 07:57:52;;;;;;;39.03;24.08;;;;;;;;;;5044540;28;20490;-79
2022/08/24 08:00:18;;;;;;;47.63;29.60;;;;;;;;;;5026168;28;20087;-79
2022/08/24 08:02:45;;;;;;;36.90;23.95;;;;;;;;;;5032730;28;20701;-78
2022/08/24 08:05:11;;;;;;;50.80;31.20;;;;;;;;;;5047884;28;20040;-79
2022/08/24 08:07:36;;;;;;;63.72;32.08;;;;;;;;;;5030004;28;20029;-79
2022/08/24 08:10:02;;;;;;;51.43;29.43;;;;;;;;;;5040547;28;20353;-81
2022/08/24 08:12:28;;;;;;;40.55;24.38;;;;;;;;;;5023112;28;20282;-79
2022/08/24 08:14:53;;;;;;;44.05;26.35;;;;;;;;;;5028050;28;20559;-81
2022/08/24 08:17:18;;;;;;;38.67;23.70;;;;;;;;;;5042874;28;20025;-79
2022/08/24 08:19:43;;;;;;;51.75;27.00;;;;;;;;;;5046698;28;20385;-82
2022/08/24 08:24:53;;;;;;;41.17;23.25;;;;;;;;;;5026232;28;20078;-79
2022/08/24 08:27:19;;;;;;;47.08;26.17;;;;;;;;;;5022901;28;20037;-83
2022/08/24 08:29:45;;;;;;;39.40;22.88;;;;;;;;;;5023512;28;20614;-82
2022/08/24 08:32:13;;;;;;;32.90;19.70;;;;;;;;;;5021444;28;20022;-82
2022/08/24 08:34:38;;;;;;;48.90;21.77;;;;;;;;;;5055882;28;20032;-80
2022/08/24 08:37:07;;;;;;;35.33;20.75;;;;;;;;;;5027256;28;20033;-81
2022/08/24 08:39:33;;;;;;;37.55;20.80;;;;;;;;;;5022528;28;20302;-84
2022/08/24 08:42:14;;;;;;;33.00;20.60;;;;;;;;;;5057102;28;20050;-83
2022/08/24 08:44:51;;;;;;;41.53;20.25;;;;;;;;;;5041052;28;20120;-83
2022/08/24 08:47:19;;;;;;;36.60;17.65;;;;;;;;;;5030157;28;20075;-83
2022/08/24 08:49:44;;;;;;;35.63;18.95;;;;;;;;;;5046436;28;20056;-81
2022/08/24 08:52:23;;;;;;;30.87;18.13;;;;;;;;;;5029670;28;20935;-83
2022/08/24 08:55:07;;;;;;;32.70;18.52;;;;;;;;;;5031035;28;20275;-84
2022/08/24 08:57:45;;;;;;;24.58;16.00;;;;;;;;;;5026455;28;20041;-83
2022/08/24 09:00:18;;;;;;;31.60;18.05;;;;;;;;;;5026678;28;20061;-83
2022/08/24 09:02:54;;;;;;;28.27;15.55;;;;;;;;;;5027090;28;20033;-83
2022/08/24 09:05:28;;;;;;;26.65;15.23;;;;;;;;;;5028840;28;20036;-81
2022/08/24 09:08:18;;;;;;;26.95;15.07;;;;;;;;;;5026366;28;20152;-82
2022/08/24 09:11:12;;;;;;;21.10;13.20;;;;;;;;;;5028357;28;20417;-84
2022/08/24 09:13:45;;;;;;;27.92;13.95;;;;;;;;;;5021045;28;20412;-84
2022/08/24 09:16:26;;;;;;;31.48;17.40;;;;;;;;;;5043777;28;20140;-80
2022/08/24 09:18:51;;;;;;;20.65;12.38;;;;;;;;;;5037398;28;20569;-81
2022/08/24 09:21:25;;;;;;;21.43;12.23;;;;;;;;;;5025776;28;20104;-84
2022/08/24 09:24:23;;;;;;;19.35;12.80;;;;;;;;;;5042733;28;20627;-82
2022/08/24 09:27:06;;;;;;;24.67;16.30;;;;;;;;;;5013396;28;20505;-83
2022/08/24 09:29:52;;;;;;;22.20;12.27;;;;;;;;;;5027446;28;20030;-81
2022/08/24 09:32:23;;;;;;;19.77;12.85;;;;;;;;;;5024955;28;20133;-82
2022/08/24 09:34:50;;;;;;;23.08;12.65;;;;;;;;;;5024724;28;20021;-81
2022/08/24 09:37:15;;;;;;;27.08;15.05;;;;;;;;;;5030163;28;20036;-83
2022/08/24 09:40:01;;;;;;;34.05;16.15;;;;;;;;;;5028140;28;20497;-81
2022/08/24 09:42:32;;;;;;;28.45;16.25;;;;;;;;;;5028868;28;20107;-81
2022/08/24 09:45:09;;;;;;;33.40;18.40;;;;;;;;;;5029825;28;20033;-83
2022/08/24 09:47:49;;;;;;;29.88;20.67;;;;;;;;;;5028228;28;20560;-84
2022/08/24 09:50:24;;;;;;;32.13;20.20;;;;;;;;;;5021200;28;20500;-83
2022/08/24 09:52:52;;;;;;;31.90;19.20;;;;;;;;;;5038123;28;20029;-82
2022/08/24 09:55:30;;;;;;;33.97;18.20;;;;;;;;;;5041900;28;20125;-82
2022/08/24 09:58:02;;;;;;;31.88;18.42;;;;;;;;;;5024500;28;20087;-84
2022/08/24 10:00:41;;;;;;;26.13;15.75;;;;;;;;;;5028155;28;20030;-82
2022/08/24 10:03:12;;;;;;;25.98;14.38;;;;;;;;;;5041447;28;20064;-82
2022/08/24 10:05:50;;;;;;;24.33;16.85;;;;;;;;;;5042994;28;20037;-84
2022/08/24 10:08:37;;;;;;;27.77;15.23;;;;;;;;;;5024593;28;20084;-85
2022/08/24 10:11:08;;;;;;;31.15;14.90;;;;;;;;;;5043462;28;20060;-83
2022/08/24 10:13:53;;;;;;;32.17;15.90;;;;;;;;;;5043843;28;20057;-82
2022/08/24 10:16:37;;;;;;;27.77;14.30;;;;;;;;;;5025280;28;20867;-83
2022/08/24 10:19:12;;;;;;;30.50;16.38;;;;;;;;;;5027325;28;20477;-84
2022/08/24 10:21:48;;;;;;;29.63;15.45;;;;;;;;;;5030339;28;20033;-82
2022/08/24 10:24:28;;;;;;;27.85;14.98;;;;;;;;;;5041079;28;20088;-82
2022/08/24 10:27:00;;;;;;;23.42;13.63;;;;;;;;;;5043489;28;20059;-82
2022/08/24 10:29:29;;;;;;;24.20;14.57;;;;;;;;;;5043975;28;20025;-82
2022/08/24 10:32:03;;;;;;;32.97;16.42;;;;;;;;;;5042076;28;20033;-82
2022/08/24 10:34:48;;;;;;;21.45;14.32;;;;;;;;;;5045504;28;20062;-83
2022/08/24 10:37:17;;;;;;;24.50;15.65;;;;;;;;;;5030690;28;20056;-83
2022/08/24 10:39:53;;;;;;;23.58;15.30;;;;;;;;;;5028761;28;20021;-82
2022/08/24 10:45:36;;;;;;;27.77;14.88;;;;;;;;;;5025363;28;20028;-80
2022/08/24 10:48:30;;;;;;;25.83;13.85;;;;;;;;;;5024574;28;20021;-78
2022/08/24 10:51:02;;;;;;;15.85;12.02;;;;;;;;;;5025254;28;20401;-79
2022/08/24 10:53:31;;;;;;;17.60;13.13;;;;;;;;;;5027715;28;20025;-79
2022/08/24 10:56:07;;;;;;;19.27;12.10;;;;;;;;;;5023170;28;20022;-79
2022/08/24 10:58:43;;;;;;;20.60;12.73;;;;;;;;;;5021034;28;20071;-79
2022/08/24 11:01:17;;;;;;;21.67;13.90;;;;;;;;;;5023294;28;20022;-79
2022/08/24 11:03:54;;;;;;;19.10;13.05;;;;;;;;;;5023320;28;20116;-78
2022/08/24 11:06:20;;;;;;;21.83;13.27;;;;;;;;;;5022322;28;20087;-79
2022/08/24 11:09:11;;;;;;;21.40;13.55;;;;;;;;;;5042329;28;20545;-77
2022/08/24 11:11:41;;;;;;;16.30;12.80;;;;;;;;;;5016340;28;20140;-79
2022/08/24 11:14:15;;;;;;;16.90;11.68;;;;;;;;;;5027601;28;20028;-77
2022/08/24 11:16:44;;;;;;;16.80;11.13;;;;;;;;;;5034931;28;20040;-79
2022/08/24 11:19:13;;;;;;;19.00;12.80;;;;;;;;;;5020797;28;20021;-78
2022/08/24 11:21:39;;;;;;;22.95;11.85;;;;;;;;;;5020443;28;20109;-77
2022/08/24 11:24:16;;;;;;;15.55;12.13;;;;;;;;;;5035596;28;20388;-78
2022/08/24 11:27:01;;;;;;;21.42;12.63;;;;;;;;;;5018269;28;20055;-79
2022/08/24 11:29:52;;;;;;;20.33;13.82;;;;;;;;;;5022218;28;20114;-78
2022/08/24 11:32:36;;;;;;;16.65;11.77;;;;;;;;;;5040545;28;20493;-79
2022/08/24 11:35:15;;;;;;;18.50;12.43;;;;;;;;;;5019213;28;20048;-77
2022/08/24 11:37:41;;;;;;;17.00;11.60;;;;;;;;;;5023219;28;20087;-78
2022/08/24 11:40:07;;;;;;;15.35;10.95;;;;;;;;;;5021220;28;20041;-79
2022/08/24 11:42:48;;;;;;;21.50;12.60;;;;;;;;;;5023192;28;20060;-78
2022/08/24 11:45:25;;;;;;;15.48;10.38;;;;;;;;;;5037241;28;20034;-77
2022/08/24 11:47:53;;;;;;;17.55;11.93;;;;;;;;;;5023369;28;20029;-78
2022/08/24 11:50:25;;;;;;;17.15;10.70;;;;;;;;;;5024276;28;20416;-77
2022/08/24 11:53:00;;;;;;;15.07;10.88;;;;;;;;;;5026658;28;20044;-79
2022/08/24 11:55:41;;;;;;;15.93;10.43;;;;;;;;;;5026282;28;20040;-79
2022/08/24 11:58:06;;;;;;;17.10;11.15;;;;;;;;;;5025481;28;20032;-79
2022/08/24 12:00:44;;;;;;;14.60;9.23;;;;;;;;;;5042685;28;20150;-79
2022/08/24 12:03:28;;;;;;;12.38;10.00;;;;;;;;;;5028007;28;20335;-77
2022/08/24 12:05:58;;;;;;;15.30;11.05;;;;;;;;;;5029340;28;20021;-78
2022/08/24 12:08:38;;;;;;;13.43;9.23;;;;;;;;;;5028079;28;20052;-78
2022/08/24 12:11:09;;;;;;;14.68;8.02;;;;;;;;;;5039208;28;20045;-78
2022/08/24 12:13:54;;;;;;;12.55;8.45;;;;;;;;;;5024862;28;20069;-80
2022/08/24 12:16:45;;;;;;;12.52;8.38;;;;;;;;;;5026515;28;20021;-79
2022/08/24 12:19:14;;;;;;;12.20;6.25;;;;;;;;;;5010195;28;20045;-79
2022/08/24 12:21:44;;;;;;;14.18;6.50;;;;;;;;;;5024328;28;20583;-79
2022/08/24 12:24:20;;;;;;;8.60;6.90;;;;;;;;;;5026565;28;20056;-78
2022/08/24 12:27:01;;;;;;;13.73;6.30;;;;;;;;;;5024338;28;20414;-79
2022/08/24 12:29:29;;;;;;;7.17;6.47;;;;;;;;;;5042755;28;20044;-78
2022/08/24 12:31:56;;;;;;;8.30;5.93;;;;;;;;;;5026384;28;20120;-80
2022/08/24 12:34:45;;;;;;;8.07;5.70;;;;;;;;;;5027451;28;20706;-79
2022/08/24 12:37:17;;;;;;;8.52;6.45;;;;;;;;;;5020426;28;20490;-78
2022/08/24 12:39:42;;;;;;;;;;;;;;;;;;5026800;28;20017;-79
2022/08/24 12:42:11;;;;;;;8.18;6.22;;;;;;;;;;5025519;28;20269;-80
2022/08/24 12:44:42;;;;;;;8.60;6.28;;;;;;;;;;5023772;28;20037;-80
2022/08/24 12:47:08;;;;;;;8.00;6.47;;;;;;;;;;5037135;28;22071;-79
2022/08/24 12:49:37;;;;;;;8.90;6.18;;;;;;;;;;5021038;28;20283;-79
2022/08/24 12:52:16;;;;;;;11.68;6.35;;;;;;;;;;5026919;28;20026;-79
2022/08/24 12:54:44;;;;;;;8.07;5.50;;;;;;;;;;5022154;28;20025;-80
2022/08/24 12:57:21;;;;;;;8.15;5.75;;;;;;;;;;5037105;28;20056;-79
2022/08/24 12:59:51;;;;;;;9.73;5.57;;;;;;;;;;5025259;28;20036;-78
2022/08/24 13:02:16;;;;;;;18.45;6.93;;;;;;;;;;5025103;28;20036;-80
2022/08/24 13:04:45;;;;;;;9.90;6.03;;;;;;;;;;5026966;28;20025;-80
2022/08/24 13:07:19;;;;;;;7.63;5.53;;;;;;;;;;5021890;28;20052;-78
2022/08/24 13:09:47;;;;;;;10.73;5.93;;;;;;;;;;5034439;28;20070;-81
2022/08/24 13:12:32;;;;;;;9.32;5.93;;;;;;;;;;5024882;28;20049;-81
2022/08/24 13:15:16;;;;;;;10.43;7.10;;;;;;;;;;5003997;28;20041;-81
2022/08/24 13:17:41;;;;;;;20.08;5.97;;;;;;;;;;5022511;28;20040;-81
2022/08/24 13:20:19;;;;;;;9.80;5.65;;;;;;;;;;5024009;28;20037;-85
2022/08/24 13:22:46;;;;;;;10.40;5.50;;;;;;;;;;5025019;28;20096;-83
2022/08/24 13:25:23;;;;;;;8.07;5.60;;;;;;;;;;5043415;28;20037;-80
2022/08/24 13:27:59;;;;;;;8.20;6.10;;;;;;;;;;5023610;28;20112;-80
2022/08/24 13:30:27;;;;;;;10.10;5.40;;;;;;;;;;5027592;28;20025;-80
2022/08/24 13:33:13;;;;;;;10.38;6.60;;;;;;;;;;5028662;28;20040;-83
2022/08/24 13:35:38;;;;;;;10.80;5.88;;;;;;;;;;5024885;28;20148;-80
2022/08/24 13:38:22;;;;;;;6.45;5.30;;;;;;;;;;5021760;28;20112;-83
2022/08/24 13:40:50;;;;;;;8.95;6.05;;;;;;;;;;5040008;28;20045;-85
2022/08/24 13:43:18;;;;;;;7.57;5.40;;;;;;;;;;5042663;28;20136;-84
2022/08/24 13:45:57;;;;;;;7.60;5.60;;;;;;;;;;5025586;28;20071;-85
2022/08/24 13:48:42;;;;;;;10.25;5.88;;;;;;;;;;5038193;28;20034;-86
2022/08/24 13:51:19;;;;;;;7.80;5.93;;;;;;;;;;5026495;28;20029;-82
2022/08/24 13:53:53;;;;;;;9.77;6.03;;;;;;;;;;5021843;28;20030;-84
2022/08/24 13:56:38;;;;;;;7.05;5.72;;;;;;;;;;5022112;28;20030;-82
2022/08/24 13:59:21;;;;;;;8.75;5.90;;;;;;;;;;5039075;28;20469;-85
2022/08/24 14:01:55;;;;;;;10.38;7.45;;;;;;;;;;5023812;28;20129;-86
2022/08/24 14:04:23;;;;;;;11.32;6.05;;;;;;;;;;5022798;28;20399;-87
2022/08/24 14:06:57;;;;;;;9.18;5.97;;;;;;;;;;5039492;28;20039;-81
2022/08/24 14:09:45;;;;;;;10.98;6.28;;;;;;;;;;5020865;28;20477;-84
2022/08/24 14:12:22;;;;;;;9.00;5.65;;;;;;;;;;5015365;28;20048;-81
2022/08/24 14:15:14;;;;;;;9.88;6.18;;;;;;;;;;5027394;28;20044;-81
2022/08/24 14:17:52;;;;;;;9.60;6.18;;;;;;;;;;5018469;28;20508;-81
2022/08/24 14:20:20;;;;;;;9.32;5.30;;;;;;;;;;5019291;28;20026;-83
2022/08/24 14:23:04;;;;;;;11.43;6.78;;;;;;;;;;5021166;28;20021;-82
2022/08/24 14:25:32;;;;;;;7.18;6.05;;;;;;;;;;5020096;28;20245;-79
2022/08/24 14:27:57;;;;;;;12.48;6.00;;;;;;;;;;5024344;28;20021;-80
2022/08/24 14:30:22;;;;;;;7.30;6.33;;;;;;;;;;5024213;28;20033;-80
2022/08/24 14:33:06;;;;;;;8.63;5.80;;;;;;;;;;5028197;28;20026;-79
2022/08/24 14:35:40;;;;;;;7.97;5.45;;;;;;;;;;5040210;28;21167;-80
2022/08/24 14:38:25;;;;;;;6.28;5.68;;;;;;;;;;5026479;28;20032;-79
2022/08/24 14:40:53;;;;;;;7.18;5.53;;;;;;;;;;5025498;28;20037;-79
2022/08/24 14:43:25;;;;;;;7.60;5.53;;;;;;;;;;5042230;28;20032;-80
2022/08/24 14:45:50;;;;;;;;;;;;;;;;;;5025860;28;20028;-80
2022/08/24 14:48:19;;;;;;;6.82;6.03;;;;;;;;;;5040266;28;19916;-81